createdAt,value
2022-09-06T00:03:54.285Z,16.30
2022-09-06T00:09:24.281Z,16.60
2022-09-06T00:14:26.137Z,14.70
2022-09-06T00:19:27.895Z,21.70
2022-09-06T00:24:29.741Z,19.40
2022-09-06T00:29:31.856Z,14.70
2022-09-06T00:34:33.957Z,15.60
2022-09-06T00:39:35.816Z,13.80
2022-09-06T00:44:38.527Z,11.90
2022-09-06T00:49:47.574Z,10.80
2022-09-06T00:54:50.286Z,9.40
2022-09-06T00:59:52.146Z,11.70
2022-09-06T01:04:54.975Z,11.50
2022-09-06T01:10:15.370Z,8.00
2022-09-06T01:15:35.959Z,8.20
2022-09-06T01:20:42.605Z,9.30
2022-09-06T01:26:10.845Z,10.80
2022-09-06T01:31:19.046Z,7.10
2022-09-06T01:36:54.366Z,8.60
2022-09-06T01:42:22.170Z,7.50
2022-09-06T01:47:30.256Z,11.30
2022-09-06T01:52:50.657Z,8.50
2022-09-06T01:58:24.214Z,9.90
2022-09-06T02:03:56.906Z,15.00
2022-09-06T02:09:07.675Z,10.60
2022-09-06T02:14:11.914Z,12.70
2022-09-06T02:19:37.098Z,10.50
2022-09-06T02:24:40.784Z,9.90
2022-09-06T02:29:42.596Z,16.30
2022-09-06T02:34:46.229Z,11.50
2022-09-06T02:39:53.699Z,17.50
2022-09-06T02:45:02.547Z,10.60
2022-09-06T02:50:04.354Z,10.10
2022-09-06T02:55:19.194Z,11.80
2022-09-06T03:00:34.727Z,14.30
2022-09-06T03:05:36.774Z,13.80
2022-09-06T03:10:38.518Z,13.40
2022-09-06T03:15:40.296Z,12.10
2022-09-06T03:20:42.036Z,12.80
2022-09-06T03:25:44.716Z,12.20
2022-09-06T03:30:47.372Z,18.90
2022-09-06T03:35:50.416Z,12.70
2022-09-06T03:40:52.979Z,17.60
2022-09-06T03:45:57.134Z,11.10
2022-09-06T03:50:59.205Z,15.10
2022-09-06T03:56:00.933Z,14.60
2022-09-06T04:01:04.997Z,22.40
2022-09-06T04:06:07.457Z,15.50
2022-09-06T04:11:09.253Z,22.80
2022-09-06T04:16:11.410Z,22.70
2022-09-06T04:21:13.171Z,14.80
2022-09-06T04:26:15.113Z,17.30
2022-09-06T04:31:17.192Z,15.50
2022-09-06T04:36:19.211Z,14.60
2022-09-06T04:41:22.481Z,10.30
2022-09-06T04:46:25.410Z,16.30
2022-09-06T04:51:27.762Z,19.10
2022-09-06T04:56:30.257Z,15.30
2022-09-06T05:01:32.176Z,15.50
2022-09-06T05:06:34.246Z,18.00
2022-09-06T05:11:36.074Z,14.90
2022-09-06T05:16:37.942Z,11.10
2022-09-06T05:21:39.892Z,13.00
2022-09-06T05:26:42.000Z,11.50
2022-09-06T05:31:43.922Z,14.00
2022-09-06T05:36:46.320Z,17.70
2022-09-06T05:41:48.109Z,11.10
2022-09-06T05:46:49.811Z,13.50
2022-09-06T05:51:52.273Z,13.40
2022-09-06T05:56:54.057Z,11.30
2022-09-06T06:01:55.834Z,10.30
2022-09-06T06:06:57.601Z,21.70
2022-09-06T06:11:59.308Z,18.70
2022-09-06T06:17:02.019Z,11.30
2022-09-06T06:22:03.868Z,17.10
2022-09-06T06:27:05.583Z,11.90
2022-09-06T06:32:07.292Z,15.20
2022-09-06T06:37:09.129Z,28.70
2022-09-06T06:42:11.024Z,17.50
2022-09-06T06:47:16.764Z,12.10
2022-09-06T06:52:18.549Z,25.10
2022-09-06T06:57:20.378Z,12.80
2022-09-06T07:02:22.321Z,12.50
2022-09-06T07:07:32.285Z,17.90
2022-09-06T07:12:35.747Z,18.60
2022-09-06T07:17:37.788Z,19.10
2022-09-06T07:22:54.442Z,13.20
2022-09-06T07:27:59.033Z,12.50
2022-09-06T07:33:01.575Z,15.60
2022-09-06T07:38:04.868Z,19.60
2022-09-06T07:43:06.801Z,17.30
2022-09-06T07:48:08.629Z,21.60
2022-09-06T07:53:15.110Z,47.80
2022-09-06T07:58:19.396Z,36.60
2022-09-06T08:03:21.265Z,27.10
2022-09-06T08:14:00.217Z,16.70
2022-09-06T08:19:03.907Z,10.40
2022-09-06T08:24:06.887Z,13.00
2022-09-06T08:29:09.224Z,16.60
2022-09-06T08:34:12.838Z,14.30
2022-09-06T08:39:21.183Z,15.90
2022-09-06T08:44:55.360Z,17.90
2022-09-06T08:50:13.160Z,21.20
2022-09-06T08:55:47.491Z,13.70
2022-09-06T09:01:07.671Z,11.80
2022-09-06T09:06:10.447Z,12.80
2022-09-06T09:11:17.560Z,13.50
2022-09-06T09:16:33.273Z,19.20
2022-09-06T09:21:48.580Z,17.40
2022-09-06T09:27:05.699Z,13.20
2022-09-06T09:32:08.379Z,17.30
2022-09-06T09:42:35.729Z,9.80
2022-09-06T09:47:37.426Z,15.60
2022-09-06T09:52:43.472Z,9.60
2022-09-06T09:57:47.242Z,20.30
2022-09-06T10:02:50.070Z,12.30
2022-09-06T10:07:51.986Z,8.90
2022-09-06T10:13:12.459Z,7.80
2022-09-06T10:18:29.308Z,12.00
2022-09-06T10:29:09.792Z,5.00
2022-09-06T10:34:17.221Z,8.70
2022-09-06T10:39:21.787Z,7.30
2022-09-06T10:44:26.293Z,9.40
2022-09-06T10:49:28.689Z,18.50
2022-09-06T10:54:31.080Z,16.90
2022-09-06T10:59:42.121Z,21.60
2022-09-06T11:10:27.679Z,18.50
2022-09-06T11:15:33.099Z,6.20
2022-09-06T11:20:53.712Z,9.30
2022-09-06T11:26:19.348Z,10.00
2022-09-06T11:41:49.756Z,12.10
2022-09-06T11:46:51.489Z,6.50
2022-09-06T11:51:53.835Z,9.80
2022-09-06T11:57:03.640Z,6.00
2022-09-06T12:02:07.031Z,5.50
2022-09-06T12:07:11.172Z,6.70
2022-09-06T12:12:32.837Z,7.00
2022-09-06T12:17:46.717Z,7.10
2022-09-06T12:22:48.632Z,5.70
2022-09-06T12:27:52.621Z,5.90
2022-09-06T12:32:54.416Z,6.20
2022-09-06T12:38:00.162Z,11.30
2022-09-06T12:43:03.507Z,9.10
2022-09-06T12:48:09.522Z,7.10
2022-09-06T12:53:24.556Z,5.60
2022-09-06T12:58:29.622Z,9.80
2022-09-06T13:03:40.649Z,8.20
2022-09-06T13:08:45.617Z,6.30
2022-09-06T13:13:49.102Z,7.80
2022-09-06T13:18:51.011Z,7.40
2022-09-06T13:23:52.982Z,12.90
2022-09-06T13:28:54.658Z,6.10
2022-09-06T18:21:31.098Z,24.90
2022-09-06T18:26:33.328Z,36.40
2022-09-06T18:31:35.750Z,26.50
2022-09-06T18:36:38.249Z,19.60
2022-09-06T18:41:58.457Z,77.80
2022-09-06T18:47:06.799Z,48.10
2022-09-06T18:52:08.676Z,59.50
2022-09-06T18:57:11.239Z,58.70
2022-09-06T19:02:13.150Z,85.00
2022-09-06T19:16:19.800Z,24.00
2022-09-06T19:21:24.790Z,24.90
2022-09-06T19:26:29.303Z,20.10
2022-09-06T19:31:42.333Z,22.10
2022-09-06T19:36:45.098Z,21.30
2022-09-06T19:41:47.799Z,24.50
2022-09-06T19:46:49.868Z,21.20
2022-09-06T19:51:53.124Z,25.60
2022-09-06T19:56:54.828Z,19.50
2022-09-06T20:01:56.886Z,19.80
2022-09-06T20:06:58.722Z,24.50
2022-09-06T20:12:00.432Z,18.40
2022-09-06T20:17:22.749Z,16.30
2022-09-06T20:22:24.205Z,23.10
2022-09-06T20:27:25.954Z,19.20
2022-09-06T20:32:49.332Z,17.20
2022-09-06T20:38:04.689Z,19.10
2022-09-06T20:43:12.807Z,14.60
2022-09-06T20:48:14.560Z,13.00
2022-09-06T20:53:16.308Z,15.10
2022-09-06T20:58:18.079Z,14.00
2022-09-06T21:03:20.546Z,15.70
2022-09-06T21:08:41.875Z,19.30
2022-09-06T21:14:05.293Z,13.40
2022-09-06T21:19:12.526Z,14.40
2022-09-06T21:24:14.829Z,14.00
2022-09-06T21:29:16.595Z,15.50
2022-09-06T21:34:18.454Z,15.40
2022-09-06T21:39:20.180Z,20.00
2022-09-06T21:44:22.077Z,14.00
2022-09-06T21:49:23.788Z,15.60
2022-09-06T21:54:25.624Z,19.10
2022-09-06T21:59:47.288Z,16.10
2022-09-06T22:04:59.532Z,16.10
2022-09-06T22:10:01.272Z,15.00
2022-09-06T22:15:03.326Z,10.50
2022-09-06T22:20:06.646Z,16.00
2022-09-06T22:25:08.652Z,13.20
2022-09-06T22:30:11.135Z,14.00
2022-09-06T22:35:12.994Z,13.30
2022-09-06T22:40:14.937Z,16.30
2022-09-06T22:45:19.839Z,14.60
2022-09-06T22:50:21.618Z,15.50
2022-09-06T22:55:24.245Z,11.80
2022-09-06T23:00:27.473Z,12.00
2022-09-06T23:05:31.401Z,11.80
2022-09-06T23:10:33.224Z,11.80
2022-09-06T23:15:36.453Z,15.20
2022-09-06T23:20:38.301Z,12.00
2022-09-06T23:25:40.356Z,13.00
2022-09-06T23:30:42.084Z,11.70
2022-09-06T23:35:50.285Z,12.40
2022-09-06T23:40:52.152Z,16.40
2022-09-06T23:45:53.960Z,12.50
2022-09-06T23:50:55.707Z,12.20
2022-09-06T23:55:57.781Z,11.60
